Aérodrome :
LOGIN :

S'inscrire | Disclaimer

   EN    FR    IT 

 










Légende :    VFR   VFR Marginal   IFR   IFR Intensif   IFR Très Intensif
Visi : 
Plafond : 
>= 8 km
>= 3000ft
5 à 8 km
1000 à 3000 ft
1500m à 5 km
500 à 1000 ft
800 à 1500m
200 à 500 ft
< 800m
< 200 ft
Symboles :   Orages  Brouillard  Fortes neiges  Fortes précipitations  Vent > 20 kt
SIGMETs :   Divers  Orages  Givrage  Turbulence  Onde Orograph.  Cendres Volcan.







- Altitude de l'aérodrome : 433 ft
- Voir les cartes d'approche


LFOC - Chateaudun

DERNIER METAR :
  • 170400Z AUTO 02002KT 5000 BR VV/// 12/11 Q1022

METARs EXPIRÉS :
  • 170330Z AUTO 03002KT 6000 NSC 12/11 Q1022
  • 170300Z AUTO 04001KT CAVOK 11/10 Q1022
  • 170230Z AUTO 00000KT CAVOK 11/10 Q1022
  • 170200Z AUTO 00000KT CAVOK 11/10 Q1022
  • 170130Z AUTO 00000KT 9999 4900 NSC 12/11 Q1023

TAF TAF LFOC
Valide du 16 à 15h jusqu'au 17 à 15h UTC


161400Z 1615/1715 23012KT CAVOK
BECMG 1702/1704 VRB02KT
PROB30
TEMPO 1704/1707 4000 BR
Pas de NOTAMs connus pour ce terrain.



MET'MAP, la Météo Aéronautique d'un coup d'oeil ! - Copyright ORBIFLY Décembre 2007 - Disclaimer

ORBIFLY MET'MAP TEAM :

Programmation & Développement : Alexandra Zaïnal
Conception & Développement : Baudouin d'Aumeries
Co-Programmation & Développement : Marc-Olivier Méhu
Soutien technique & logistique : Manuel Goepfert

Contact : metmap@orbifly.com




SOURCES & CREDITS :

   NOAA